createdAt,value
2023-02-07T00:03:02.562Z,15.059999999999999
2023-02-07T00:07:58.776Z,10.38
2023-02-07T00:12:55.044Z,13.14
2023-02-07T00:17:51.285Z,12.379999999999999
2023-02-07T00:22:47.535Z,13.059999999999999
2023-02-07T00:27:43.796Z,17.740000000000002
2023-02-07T00:32:40.019Z,12.68
2023-02-07T00:37:36.317Z,10.66
2023-02-07T00:42:32.528Z,13.219999999999999
2023-02-07T00:47:28.801Z,11.78
2023-02-07T00:52:25.080Z,11.3
2023-02-07T00:57:21.333Z,15.52
2023-02-07T01:02:17.560Z,15.040000000000001
2023-02-07T01:07:13.848Z,11.82
2023-02-07T01:12:10.108Z,15.86
2023-02-07T01:17:07.416Z,14.419999999999998
2023-02-07T01:22:03.645Z,10.959999999999999
2023-02-07T01:26:59.910Z,10.059999999999999
2023-02-07T01:31:56.229Z,11.88
2023-02-07T01:36:52.401Z,12.56
2023-02-07T01:41:48.662Z,14.02
2023-02-07T01:46:44.919Z,10.48
2023-02-07T01:51:42.179Z,10.34
2023-02-07T01:56:42.435Z,11.86
2023-02-07T02:01:41.718Z,9.940000000000001
2023-02-07T02:06:38.955Z,9.219999999999999
2023-02-07T02:11:52.148Z,12.680000000000001
2023-02-07T02:16:56.403Z,18.839999999999996
2023-02-07T02:22:07.632Z,9.479999999999999
2023-02-07T02:27:16.812Z,11.52
2023-02-07T02:32:27.040Z,10.5
2023-02-07T02:37:31.359Z,10.84
2023-02-07T02:42:33.527Z,26.32
2023-02-07T02:47:31.802Z,18.300000000000004
2023-02-07T02:52:44.681Z,18.82
2023-02-07T02:57:43.293Z,13.5
2023-02-07T03:02:51.499Z,11.16
2023-02-07T03:07:59.728Z,12.7
2023-02-07T03:13:00.005Z,12.680000000000001
2023-02-07T03:18:01.259Z,13.14
2023-02-07T03:22:59.510Z,13.12
2023-02-07T03:27:57.768Z,12.6
2023-02-07T03:32:55.987Z,12.56
2023-02-07T03:37:54.266Z,14.020000000000001
2023-02-07T03:47:59.739Z,11.879999999999999
2023-02-07T03:52:56.029Z,14.459999999999999
2023-02-07T04:02:56.505Z,29.3
2023-02-07T04:07:52.732Z,18.880000000000003
2023-02-07T04:12:49.056Z,19.919999999999998
2023-02-07T04:17:44.283Z,17.259999999999998
2023-02-07T04:22:39.509Z,21.04
2023-02-07T04:27:35.811Z,18.64
2023-02-07T04:32:32.040Z,15.139999999999997
2023-02-07T04:37:28.338Z,17.380000000000003
2023-02-07T04:42:24.546Z,17.54
2023-02-07T04:47:20.830Z,14.48
2023-02-07T04:52:17.055Z,18.080000000000002
2023-02-07T04:57:13.382Z,15.219999999999999
2023-02-07T05:02:09.621Z,21.080000000000002
2023-02-07T05:07:05.874Z,21.34
2023-02-07T05:12:02.122Z,19.22
2023-02-07T05:16:58.488Z,19.880000000000003
2023-02-07T05:21:54.670Z,22.38
2023-02-07T05:26:50.914Z,29.459999999999997
2023-02-07T05:31:47.292Z,26.76
2023-02-07T05:36:43.410Z,28.660000000000004
2023-02-07T05:41:39.712Z,26.619999999999997
2023-02-07T05:46:35.938Z,32.12
2023-02-07T05:51:32.221Z,31.46
2023-02-07T05:56:28.427Z,21.139999999999997
2023-02-07T06:01:25.703Z,28.540000000000003
2023-02-07T06:06:21.956Z,29.82
2023-02-07T06:11:19.222Z,26.78
2023-02-07T06:16:15.602Z,37.8
2023-02-07T06:21:11.740Z,21.919999999999998
2023-02-07T06:26:07.052Z,24.42
2023-02-07T06:31:02.367Z,34.04
2023-02-07T06:35:58.553Z,23.580000000000002
2023-02-07T06:40:54.812Z,24.479999999999997
2023-02-07T06:45:51.072Z,23.78
2023-02-07T06:50:49.272Z,29.1
2023-02-07T06:55:45.543Z,40.64
2023-02-07T07:24:35.252Z,32.54
2023-02-07T07:29:31.498Z,24.18
2023-02-07T07:34:27.738Z,43.86
2023-02-07T07:39:23.987Z,35.58
2023-02-07T07:44:20.252Z,36.64
2023-02-07T07:49:16.558Z,49.78
2023-02-07T07:54:12.842Z,23.28
2023-02-07T07:59:19.979Z,26.46
2023-02-07T08:09:15.508Z,19
2023-02-07T08:14:11.774Z,16.24
2023-02-07T08:19:08.022Z,22.639999999999997
2023-02-07T08:24:04.299Z,27.1
2023-02-07T08:29:00.597Z,29.080000000000002
2023-02-07T08:33:56.849Z,26.080000000000002
2023-02-07T08:38:53.110Z,20.2
2023-02-07T08:43:49.348Z,74.46
2023-02-07T08:48:45.631Z,19.060000000000002
2023-02-07T08:53:41.847Z,25.2
2023-02-07T08:58:38.138Z,24.380000000000003
2023-02-07T09:03:34.366Z,18.98
2023-02-07T09:08:30.666Z,18.88
2023-02-07T09:13:26.989Z,18.64
2023-02-07T09:18:23.208Z,20.059999999999995
2023-02-07T09:23:19.539Z,15.8
2023-02-07T09:28:16.006Z,13.080000000000002
2023-02-07T09:33:13.135Z,11.38
2023-02-07T09:38:11.357Z,10.38
2023-02-07T09:43:17.703Z,18.08
2023-02-07T09:48:17.692Z,19.119999999999997
2023-02-07T09:53:18.919Z,17.18
2023-02-07T09:58:19.197Z,14.979999999999999
2023-02-07T10:03:19.418Z,16.18
2023-02-07T10:08:16.657Z,25.52
2023-02-07T10:13:24.934Z,21.48
2023-02-07T10:18:35.162Z,16.16
2023-02-07T10:23:41.414Z,18.56
2023-02-07T10:28:51.577Z,10.440000000000001
2023-02-07T10:33:48.871Z,11.459999999999999
2023-02-07T10:38:59.871Z,18.98
2023-02-07T10:40:24.885Z,25.78
2023-02-07T10:45:21.130Z,17.6
2023-02-07T10:50:29.425Z,15.8
2023-02-07T10:55:28.605Z,11.680000000000001
2023-02-07T11:00:32.850Z,9.559999999999999
2023-02-07T11:05:36.105Z,21.04
2023-02-07T11:10:37.332Z,21.9
2023-02-07T11:15:37.786Z,14.040000000000001
2023-02-07T11:20:35.828Z,18.060000000000002
2023-02-07T11:25:35.088Z,17.08
2023-02-07T11:30:33.403Z,14.34
2023-02-07T11:35:29.633Z,29.580000000000002
2023-02-07T11:40:28.872Z,59.81999999999999
2023-02-07T11:45:25.141Z,20.259999999999998
2023-02-07T11:50:25.393Z,15.02
2023-02-07T11:55:26.588Z,17.9
2023-02-07T12:00:34.811Z,14.459999999999999
2023-02-07T12:05:38.395Z,12.940000000000001
2023-02-07T12:10:39.349Z,16.580000000000002
2023-02-07T12:15:40.805Z,18.380000000000003
2023-02-07T12:20:40.863Z,13.02
2023-02-07T12:25:41.110Z,11.2
2023-02-07T12:30:45.418Z,27.580000000000002
2023-02-07T12:35:56.793Z,16.999999999999996
2023-02-07T12:40:54.794Z,8.379999999999999
2023-02-07T12:46:03.197Z,15.079999999999998
2023-02-07T12:51:11.264Z,19.72
2023-02-07T12:56:20.586Z,33.739999999999995
2023-02-07T13:01:28.750Z,11.2
2023-02-07T13:06:35.956Z,13.680000000000001
2023-02-07T13:11:39.164Z,55.48
2023-02-07T13:16:42.474Z,14.719999999999999
2023-02-07T13:21:49.629Z,21.38
2023-02-07T13:26:48.927Z,19.4
2023-02-07T13:31:49.218Z,27.32
2023-02-07T13:36:49.419Z,22.020000000000003
2023-02-07T13:41:56.646Z,17.72
2023-02-07T13:47:06.843Z,12.84
2023-02-07T13:52:11.652Z,13.84
2023-02-07T13:57:13.364Z,20.94
2023-02-07T14:02:16.569Z,31.24
2023-02-07T14:07:18.868Z,12.7
2023-02-07T14:12:19.093Z,11.379999999999999
2023-02-07T14:17:22.370Z,18.7
2023-02-07T14:22:20.569Z,18.639999999999997
2023-02-07T14:27:25.803Z,16.9
2023-02-07T14:32:28.119Z,35.339999999999996
2023-02-07T14:37:29.337Z,30.46
2023-02-07T14:42:25.616Z,21.86
2023-02-07T14:47:24.839Z,38.18
2023-02-07T14:52:23.080Z,24.119999999999997
2023-02-07T14:57:26.383Z,65.58000000000001
2023-02-07T15:02:29.810Z,23.300000000000004
2023-02-07T15:07:25.840Z,20.660000000000004
2023-02-07T15:12:27.399Z,20.04
2023-02-07T15:17:33.427Z,25.939999999999998
2023-02-07T15:22:28.595Z,24.98
2023-02-07T15:27:28.881Z,32.02
2023-02-07T15:32:26.152Z,29.419999999999998
2023-02-07T15:37:23.307Z,42.64
2023-02-07T15:42:21.586Z,45.54
2023-02-07T15:47:28.864Z,38.96
2023-02-07T15:52:30.046Z,47.9
2023-02-07T15:57:30.321Z,94.14
2023-02-07T16:02:28.574Z,105.25999999999999
2023-02-07T16:07:29.786Z,123.2
2023-02-07T16:12:30.117Z,146.73999999999998
2023-02-07T16:17:32.353Z,78.08
2023-02-07T16:22:33.576Z,78.38
2023-02-07T16:27:31.994Z,197.88
2023-02-07T16:32:31.121Z,217.66000000000003
2023-02-07T16:37:27.347Z,76.23999999999998
2023-02-07T16:42:26.637Z,111.66
2023-02-07T16:47:22.815Z,93.17999999999999
2023-02-07T16:52:19.130Z,120.74000000000001
2023-02-07T16:57:16.399Z,95.52000000000001
2023-02-07T17:02:13.672Z,113.02000000000001
2023-02-07T17:07:11.884Z,114.20000000000002
2023-02-07T17:12:09.140Z,133.78000000000003
2023-02-07T17:17:05.409Z,125.94000000000001
2023-02-07T17:22:01.664Z,101.84
2023-02-07T17:26:58.914Z,108.8
2023-02-07T17:31:55.273Z,114.25999999999999
2023-02-07T17:36:50.429Z,87.74
2023-02-07T17:41:45.675Z,86.42
2023-02-07T17:46:44.959Z,96.44
2023-02-07T17:51:40.185Z,98.16
2023-02-07T17:56:36.451Z,104.47999999999999
2023-02-07T18:01:32.785Z,91.08
2023-02-07T18:06:28.990Z,74.91999999999999
2023-02-07T18:11:26.251Z,69.66
2023-02-07T18:16:23.506Z,110.74000000000001
2023-02-07T18:21:19.761Z,121.85999999999999
2023-02-07T18:26:19.016Z,169.45999999999998
2023-02-07T18:31:17.442Z,175.94
2023-02-07T18:36:14.515Z,134.64000000000001
2023-02-07T18:41:11.786Z,115.6
2023-02-07T18:46:11.097Z,131.71999999999997
2023-02-07T18:51:08.333Z,79.1
2023-02-07T18:56:05.548Z,84.6
2023-02-07T19:01:09.816Z,93.38000000000001
2023-02-07T19:06:07.078Z,89.4
2023-02-07T19:11:04.311Z,149.2
2023-02-07T19:16:02.646Z,156.28000000000003
2023-02-07T19:21:01.786Z,100.34
2023-02-07T19:25:58.045Z,86.83999999999999
2023-02-07T19:30:54.440Z,77.22
2023-02-07T19:35:50.559Z,107.17999999999999
2023-02-07T19:40:51.835Z,61.160000000000004
2023-02-07T19:45:48.100Z,52.239999999999995
2023-02-07T19:50:44.322Z,52.04
2023-02-07T19:55:41.622Z,72.34
2023-02-07T20:00:38.288Z,61.94
2023-02-07T20:05:35.101Z,45.480000000000004
2023-02-07T20:10:29.371Z,49.58
2023-02-07T20:15:25.666Z,55.36
2023-02-07T20:20:23.923Z,37.519999999999996
2023-02-07T20:25:20.163Z,43.92
2023-02-07T20:30:16.385Z,68.12
2023-02-07T20:35:12.726Z,54.98
2023-02-07T20:40:08.905Z,43.239999999999995
2023-02-07T20:46:04.087Z,46.8
2023-02-07T20:51:00.323Z,34.059999999999995
2023-02-07T20:56:01.549Z,30.82
2023-02-07T21:00:57.881Z,38.1
2023-02-07T21:05:54.084Z,37.89999999999999
2023-02-07T21:10:50.375Z,36.86
2023-02-07T21:16:01.389Z,53.879999999999995
2023-02-07T21:20:47.830Z,55.260000000000005
2023-02-07T21:25:44.108Z,73.2
2023-02-07T21:30:40.768Z,127.94000000000001
2023-02-07T21:35:36.634Z,142.94
2023-02-07T21:40:32.871Z,90.82000000000001
2023-02-07T21:45:29.201Z,66.06
2023-02-07T21:50:25.393Z,63.04
2023-02-07T21:55:21.664Z,65.82000000000001
2023-02-07T22:00:17.896Z,115.47999999999999
2023-02-07T22:05:14.202Z,118.32000000000001
2023-02-07T22:10:09.474Z,71.32000000000001
2023-02-07T22:15:05.671Z,60.92
2023-02-07T22:20:01.939Z,48.040000000000006
2023-02-07T22:24:58.215Z,49.86
2023-02-07T22:29:54.465Z,56.67999999999999
2023-02-07T22:34:50.776Z,79.96
2023-02-07T22:39:48.011Z,78.64
2023-02-07T22:44:44.251Z,80.84
2023-02-07T22:49:44.479Z,89.44000000000001
2023-02-07T22:54:49.717Z,124.08
2023-02-07T22:59:49.978Z,108.33999999999999
2023-02-07T23:04:50.250Z,105.47999999999999
2023-02-07T23:09:47.518Z,86.41999999999999
2023-02-07T23:14:43.743Z,67.47999999999999
2023-02-07T23:19:44.965Z,54.660000000000004
2023-02-07T23:24:40.305Z,49.6
2023-02-07T23:29:36.526Z,76.9
2023-02-07T23:34:32.766Z,56.540000000000006
2023-02-07T23:39:29.061Z,44.040000000000006
2023-02-07T23:44:25.299Z,35.940000000000005
2023-02-07T23:49:21.565Z,37.08
2023-02-07T23:54:17.801Z,33.339999999999996
2023-02-07T23:59:14.055Z,32.739999999999995
